sensor_id;sensor_type;location;lat;lon;timestamp;P1;durP1;ratioP1;P2;durP2;ratioP2
51556;SDS011;38766;53.194;5.532;2022-07-01T00:01:24;2.47;;;1.25;;
51556;SDS011;38766;53.194;5.532;2022-07-01T00:03:53;4.43;;;1.60;;
51556;SDS011;38766;53.194;5.532;2022-07-01T00:06:18;1.85;;;1.20;;
51556;SDS011;38766;53.194;5.532;2022-07-01T00:08:44;3.17;;;1.90;;
51556;SDS011;38766;53.194;5.532;2022-07-01T00:11:11;3.10;;;1.40;;
51556;SDS011;38766;53.194;5.532;2022-07-01T00:13:37;2.63;;;1.60;;
51556;SDS011;38766;53.194;5.532;2022-07-01T00:16:02;2.42;;;1.23;;
51556;SDS011;38766;53.194;5.532;2022-07-01T00:18:29;2.70;;;1.48;;
51556;SDS011;38766;53.194;5.532;2022-07-01T00:20:54;1.85;;;1.00;;
51556;SDS011;38766;53.194;5.532;2022-07-01T00:23:20;3.22;;;1.20;;
51556;SDS011;38766;53.194;5.532;2022-07-01T00:25:46;1.83;;;1.10;;
51556;SDS011;38766;53.194;5.532;2022-07-01T00:28:12;3.28;;;1.20;;
51556;SDS011;38766;53.194;5.532;2022-07-01T00:30:38;2.47;;;1.77;;
51556;SDS011;38766;53.194;5.532;2022-07-01T00:33:03;1.10;;;1.10;;
51556;SDS011;38766;53.194;5.532;2022-07-01T00:35:29;1.77;;;1.10;;
51556;SDS011;38766;53.194;5.532;2022-07-01T00:37:55;4.30;;;1.40;;
51556;SDS011;38766;53.194;5.532;2022-07-01T00:40:22;4.22;;;1.50;;
51556;SDS011;38766;53.194;5.532;2022-07-01T00:42:48;1.63;;;1.30;;
51556;SDS011;38766;53.194;5.532;2022-07-01T00:45:14;1.92;;;1.20;;
51556;SDS011;38766;53.194;5.532;2022-07-01T00:47:40;1.42;;;1.00;;
51556;SDS011;38766;53.194;5.532;2022-07-01T00:50:07;1.90;;;0.88;;
51556;SDS011;38766;53.194;5.532;2022-07-01T00:52:35;2.55;;;1.40;;
51556;SDS011;38766;53.194;5.532;2022-07-01T00:55:05;3.38;;;1.23;;
51556;SDS011;38766;53.194;5.532;2022-07-01T00:57:33;3.85;;;1.92;;
51556;SDS011;38766;53.194;5.532;2022-07-01T01:00:18;2.10;;;1.58;;
51556;SDS011;38766;53.194;5.532;2022-07-01T01:02:48;1.75;;;1.40;;
51556;SDS011;38766;53.194;5.532;2022-07-01T01:05:13;2.05;;;1.40;;
51556;SDS011;38766;53.194;5.532;2022-07-01T01:07:39;1.58;;;1.42;;
51556;SDS011;38766;53.194;5.532;2022-07-01T01:10:05;2.88;;;1.50;;
51556;SDS011;38766;53.194;5.532;2022-07-01T01:12:31;1.63;;;1.50;;
51556;SDS011;38766;53.194;5.532;2022-07-01T01:14:58;2.95;;;1.20;;
51556;SDS011;38766;53.194;5.532;2022-07-01T01:17:24;1.08;;;0.90;;
51556;SDS011;38766;53.194;5.532;2022-07-01T01:19:51;1.33;;;0.90;;
51556;SDS011;38766;53.194;5.532;2022-07-01T01:22:19;0.80;;;0.80;;
51556;SDS011;38766;53.194;5.532;2022-07-01T01:24:45;1.88;;;1.10;;
51556;SDS011;38766;53.194;5.532;2022-07-01T01:27:15;2.08;;;1.00;;
51556;SDS011;38766;53.194;5.532;2022-07-01T01:29:41;2.88;;;0.93;;
51556;SDS011;38766;53.194;5.532;2022-07-01T01:32:07;1.30;;;1.02;;
51556;SDS011;38766;53.194;5.532;2022-07-01T01:34:34;1.85;;;0.98;;
51556;SDS011;38766;53.194;5.532;2022-07-01T01:37:05;1.25;;;0.90;;
51556;SDS011;38766;53.194;5.532;2022-07-01T01:39:33;0.80;;;0.80;;
51556;SDS011;38766;53.194;5.532;2022-07-01T01:42:04;3.58;;;1.20;;
51556;SDS011;38766;53.194;5.532;2022-07-01T01:44:31;2.28;;;1.10;;
51556;SDS011;38766;53.194;5.532;2022-07-01T01:46:57;1.25;;;0.70;;
51556;SDS011;38766;53.194;5.532;2022-07-01T01:49:23;0.65;;;0.65;;
51556;SDS011;38766;53.194;5.532;2022-07-01T01:51:48;2.22;;;0.98;;
51556;SDS011;38766;53.194;5.532;2022-07-01T01:54:14;1.08;;;0.98;;
51556;SDS011;38766;53.194;5.532;2022-07-01T01:56:40;2.00;;;0.88;;
51556;SDS011;38766;53.194;5.532;2022-07-01T01:59:05;1.15;;;0.93;;
51556;SDS011;38766;53.194;5.532;2022-07-01T02:01:31;2.15;;;1.02;;
51556;SDS011;38766;53.194;5.532;2022-07-01T02:03:57;2.47;;;0.88;;
51556;SDS011;38766;53.194;5.532;2022-07-01T02:06:24;2.15;;;0.98;;
51556;SDS011;38766;53.194;5.532;2022-07-01T02:08:50;2.92;;;1.20;;
51556;SDS011;38766;53.194;5.532;2022-07-01T02:11:16;3.70;;;1.23;;
51556;SDS011;38766;53.194;5.532;2022-07-01T02:13:42;1.63;;;1.27;;
51556;SDS011;38766;53.194;5.532;2022-07-01T02:16:09;2.83;;;1.40;;
51556;SDS011;38766;53.194;5.532;2022-07-01T02:18:35;1.77;;;1.30;;
51556;SDS011;38766;53.194;5.532;2022-07-01T02:21:00;2.80;;;1.23;;
51556;SDS011;38766;53.194;5.532;2022-07-01T02:23:26;2.65;;;1.23;;
51556;SDS011;38766;53.194;5.532;2022-07-01T02:25:53;5.57;;;1.23;;
51556;SDS011;38766;53.194;5.532;2022-07-01T02:28:18;2.70;;;1.50;;
51556;SDS011;38766;53.194;5.532;2022-07-01T02:30:44;2.47;;;1.52;;
51556;SDS011;38766;53.194;5.532;2022-07-01T02:33:10;2.95;;;1.80;;
51556;SDS011;38766;53.194;5.532;2022-07-01T02:35:36;8.40;;;2.10;;
51556;SDS011;38766;53.194;5.532;2022-07-01T02:38:03;6.82;;;2.30;;
51556;SDS011;38766;53.194;5.532;2022-07-01T02:40:30;3.88;;;2.38;;
51556;SDS011;38766;53.194;5.532;2022-07-01T02:42:56;7.95;;;2.70;;
51556;SDS011;38766;53.194;5.532;2022-07-01T02:45:21;4.75;;;3.00;;
51556;SDS011;38766;53.194;5.532;2022-07-01T02:47:49;4.90;;;2.70;;
51556;SDS011;38766;53.194;5.532;2022-07-01T02:50:15;4.40;;;2.65;;
51556;SDS011;38766;53.194;5.532;2022-07-01T02:52:43;5.55;;;2.00;;
51556;SDS011;38766;53.194;5.532;2022-07-01T02:55:10;4.38;;;2.00;;
51556;SDS011;38766;53.194;5.532;2022-07-01T02:57:37;4.35;;;1.70;;
51556;SDS011;38766;53.194;5.532;2022-07-01T03:00:07;4.47;;;1.60;;
51556;SDS011;38766;53.194;5.532;2022-07-01T03:02:36;7.55;;;1.98;;
51556;SDS011;38766;53.194;5.532;2022-07-01T03:05:02;3.88;;;1.58;;
51556;SDS011;38766;53.194;5.532;2022-07-01T03:07:28;4.53;;;1.58;;
51556;SDS011;38766;53.194;5.532;2022-07-01T03:09:54;4.70;;;1.83;;
51556;SDS011;38766;53.194;5.532;2022-07-01T03:12:20;3.72;;;1.45;;
51556;SDS011;38766;53.194;5.532;2022-07-01T03:17:24;4.25;;;1.88;;
51556;SDS011;38766;53.194;5.532;2022-07-01T03:19:51;4.13;;;1.58;;
51556;SDS011;38766;53.194;5.532;2022-07-01T03:22:18;5.45;;;1.58;;
51556;SDS011;38766;53.194;5.532;2022-07-01T03:24:45;7.88;;;1.83;;
51556;SDS011;38766;53.194;5.532;2022-07-01T03:27:11;3.92;;;1.70;;
51556;SDS011;38766;53.194;5.532;2022-07-01T03:29:37;5.70;;;1.90;;
51556;SDS011;38766;53.194;5.532;2022-07-01T03:32:03;4.95;;;1.50;;
51556;SDS011;38766;53.194;5.532;2022-07-01T03:34:28;5.68;;;1.63;;
51556;SDS011;38766;53.194;5.532;2022-07-01T03:36:54;3.53;;;1.60;;
51556;SDS011;38766;53.194;5.532;2022-07-01T03:39:20;6.53;;;1.52;;
51556;SDS011;38766;53.194;5.532;2022-07-01T03:41:46;4.65;;;1.58;;
51556;SDS011;38766;53.194;5.532;2022-07-01T03:44:12;3.90;;;1.30;;
51556;SDS011;38766;53.194;5.532;2022-07-01T03:46:37;4.47;;;1.52;;
51556;SDS011;38766;53.194;5.532;2022-07-01T03:49:03;3.85;;;1.60;;
51556;SDS011;38766;53.194;5.532;2022-07-01T03:51:29;4.50;;;1.60;;
51556;SDS011;38766;53.194;5.532;2022-07-01T03:53:55;5.95;;;1.70;;
51556;SDS011;38766;53.194;5.532;2022-07-01T03:56:39;6.20;;;1.67;;
51556;SDS011;38766;53.194;5.532;2022-07-01T03:59:05;4.18;;;1.80;;
51556;SDS011;38766;53.194;5.532;2022-07-01T04:01:30;2.28;;;1.55;;
51556;SDS011;38766;53.194;5.532;2022-07-01T04:03:56;7.95;;;1.80;;
51556;SDS011;38766;53.194;5.532;2022-07-01T04:06:22;4.28;;;1.60;;
51556;SDS011;38766;53.194;5.532;2022-07-01T04:08:48;5.88;;;1.58;;
51556;SDS011;38766;53.194;5.532;2022-07-01T04:11:14;3.72;;;1.80;;
51556;SDS011;38766;53.194;5.532;2022-07-01T04:13:40;6.10;;;1.70;;
51556;SDS011;38766;53.194;5.532;2022-07-01T04:16:08;3.80;;;1.55;;
51556;SDS011;38766;53.194;5.532;2022-07-01T04:18:34;3.50;;;1.90;;
51556;SDS011;38766;53.194;5.532;2022-07-01T04:21:00;5.45;;;1.80;;
51556;SDS011;38766;53.194;5.532;2022-07-01T04:23:44;4.60;;;2.30;;
51556;SDS011;38766;53.194;5.532;2022-07-01T04:26:10;5.65;;;2.20;;
51556;SDS011;38766;53.194;5.532;2022-07-01T04:28:36;10.15;;;2.28;;
51556;SDS011;38766;53.194;5.532;2022-07-01T04:31:01;7.07;;;2.22;;
51556;SDS011;38766;53.194;5.532;2022-07-01T04:33:27;7.72;;;1.83;;
51556;SDS011;38766;53.194;5.532;2022-07-01T04:35:52;7.50;;;2.35;;
51556;SDS011;38766;53.194;5.532;2022-07-01T04:38:18;9.23;;;2.78;;
51556;SDS011;38766;53.194;5.532;2022-07-01T04:40:44;5.78;;;1.90;;
51556;SDS011;38766;53.194;5.532;2022-07-01T04:43:29;5.13;;;2.00;;
51556;SDS011;38766;53.194;5.532;2022-07-01T04:45:55;6.00;;;2.20;;
51556;SDS011;38766;53.194;5.532;2022-07-01T04:48:21;9.80;;;2.40;;
51556;SDS011;38766;53.194;5.532;2022-07-01T04:50:46;4.55;;;1.80;;
51556;SDS011;38766;53.194;5.532;2022-07-01T04:53:13;9.73;;;2.38;;
51556;SDS011;38766;53.194;5.532;2022-07-01T04:55:39;13.27;;;2.90;;
51556;SDS011;38766;53.194;5.532;2022-07-01T04:58:05;9.65;;;2.47;;
51556;SDS011;38766;53.194;5.532;2022-07-01T05:00:30;3.88;;;2.25;;
51556;SDS011;38766;53.194;5.532;2022-07-01T05:02:59;9.05;;;2.65;;
51556;SDS011;38766;53.194;5.532;2022-07-01T05:05:25;12.52;;;2.78;;
51556;SDS011;38766;53.194;5.532;2022-07-01T05:07:50;9.50;;;2.35;;
51556;SDS011;38766;53.194;5.532;2022-07-01T05:10:16;7.72;;;2.60;;
51556;SDS011;38766;53.194;5.532;2022-07-01T05:12:41;7.57;;;3.20;;
51556;SDS011;38766;53.194;5.532;2022-07-01T05:15:07;6.90;;;2.47;;
51556;SDS011;38766;53.194;5.532;2022-07-01T05:17:34;6.50;;;2.50;;
51556;SDS011;38766;53.194;5.532;2022-07-01T05:20:18;8.75;;;2.65;;
51556;SDS011;38766;53.194;5.532;2022-07-01T05:23:02;11.97;;;3.53;;
51556;SDS011;38766;53.194;5.532;2022-07-01T05:25:28;8.23;;;2.85;;
51556;SDS011;38766;53.194;5.532;2022-07-01T05:27:54;9.43;;;2.85;;
51556;SDS011;38766;53.194;5.532;2022-07-01T05:30:20;9.88;;;2.80;;
51556;SDS011;38766;53.194;5.532;2022-07-01T05:32:46;10.10;;;3.08;;
51556;SDS011;38766;53.194;5.532;2022-07-01T05:35:12;7.72;;;2.70;;
51556;SDS011;38766;53.194;5.532;2022-07-01T05:37:39;7.13;;;2.97;;
51556;SDS011;38766;53.194;5.532;2022-07-01T05:40:05;9.80;;;2.75;;
51556;SDS011;38766;53.194;5.532;2022-07-01T05:42:32;10.27;;;3.17;;
51556;SDS011;38766;53.194;5.532;2022-07-01T05:44:57;10.13;;;3.10;;
51556;SDS011;38766;53.194;5.532;2022-07-01T05:47:23;7.53;;;2.80;;
51556;SDS011;38766;53.194;5.532;2022-07-01T05:49:49;11.05;;;2.63;;
51556;SDS011;38766;53.194;5.532;2022-07-01T05:52:14;8.48;;;2.95;;
51556;SDS011;38766;53.194;5.532;2022-07-01T05:54:40;12.63;;;3.28;;
51556;SDS011;38766;53.194;5.532;2022-07-01T05:57:06;13.00;;;3.00;;
51556;SDS011;38766;53.194;5.532;2022-07-01T05:59:31;9.55;;;2.80;;
51556;SDS011;38766;53.194;5.532;2022-07-01T06:01:57;12.27;;;3.30;;
51556;SDS011;38766;53.194;5.532;2022-07-01T06:04:23;9.00;;;2.72;;
51556;SDS011;38766;53.194;5.532;2022-07-01T06:06:48;9.82;;;3.13;;
51556;SDS011;38766;53.194;5.532;2022-07-01T06:09:14;9.23;;;2.72;;
51556;SDS011;38766;53.194;5.532;2022-07-01T06:11:39;8.95;;;3.10;;
51556;SDS011;38766;53.194;5.532;2022-07-01T06:14:05;10.45;;;3.80;;
51556;SDS011;38766;53.194;5.532;2022-07-01T06:16:31;8.18;;;3.00;;
51556;SDS011;38766;53.194;5.532;2022-07-01T06:18:56;10.80;;;2.97;;
51556;SDS011;38766;53.194;5.532;2022-07-01T06:21:22;11.00;;;3.10;;
51556;SDS011;38766;53.194;5.532;2022-07-01T06:23:48;8.85;;;2.80;;
51556;SDS011;38766;53.194;5.532;2022-07-01T06:26:13;6.72;;;2.67;;
51556;SDS011;38766;53.194;5.532;2022-07-01T06:28:39;13.80;;;3.33;;
51556;SDS011;38766;53.194;5.532;2022-07-01T06:31:05;9.85;;;3.58;;
51556;SDS011;38766;53.194;5.532;2022-07-01T06:33:31;7.00;;;2.85;;
51556;SDS011;38766;53.194;5.532;2022-07-01T06:35:57;9.25;;;3.05;;
51556;SDS011;38766;53.194;5.532;2022-07-01T06:38:23;9.95;;;2.65;;
51556;SDS011;38766;53.194;5.532;2022-07-01T06:40:49;7.70;;;2.60;;
51556;SDS011;38766;53.194;5.532;2022-07-01T06:43:34;6.63;;;2.65;;
51556;SDS011;38766;53.194;5.532;2022-07-01T06:46:00;9.43;;;2.45;;
51556;SDS011;38766;53.194;5.532;2022-07-01T06:48:26;8.90;;;2.47;;
51556;SDS011;38766;53.194;5.532;2022-07-01T06:50:52;4.15;;;2.45;;
51556;SDS011;38766;53.194;5.532;2022-07-01T06:53:18;5.97;;;2.70;;
51556;SDS011;38766;53.194;5.532;2022-07-01T06:55:43;6.57;;;2.55;;
51556;SDS011;38766;53.194;5.532;2022-07-01T06:58:09;10.48;;;2.95;;
51556;SDS011;38766;53.194;5.532;2022-07-01T07:00:35;10.50;;;2.72;;
51556;SDS011;38766;53.194;5.532;2022-07-01T07:03:01;10.23;;;3.10;;
51556;SDS011;38766;53.194;5.532;2022-07-01T07:05:27;7.10;;;2.75;;
51556;SDS011;38766;53.194;5.532;2022-07-01T07:07:56;7.85;;;2.97;;
51556;SDS011;38766;53.194;5.532;2022-07-01T07:10:22;12.18;;;2.65;;
51556;SDS011;38766;53.194;5.532;2022-07-01T07:12:48;7.80;;;2.42;;
51556;SDS011;38766;53.194;5.532;2022-07-01T07:15:13;7.03;;;2.95;;
51556;SDS011;38766;53.194;5.532;2022-07-01T07:17:39;7.80;;;2.78;;
51556;SDS011;38766;53.194;5.532;2022-07-01T07:20:05;9.32;;;2.63;;
51556;SDS011;38766;53.194;5.532;2022-07-01T07:22:31;4.75;;;2.08;;
51556;SDS011;38766;53.194;5.532;2022-07-01T07:24:57;6.78;;;2.10;;
51556;SDS011;38766;53.194;5.532;2022-07-01T07:27:22;7.78;;;2.17;;
51556;SDS011;38766;53.194;5.532;2022-07-01T07:29:48;9.30;;;2.30;;
51556;SDS011;38766;53.194;5.532;2022-07-01T07:32:13;10.45;;;2.47;;
51556;SDS011;38766;53.194;5.532;2022-07-01T07:34:39;6.88;;;2.17;;
51556;SDS011;38766;53.194;5.532;2022-07-01T07:37:05;5.25;;;1.98;;
51556;SDS011;38766;53.194;5.532;2022-07-01T07:39:31;8.32;;;2.15;;
51556;SDS011;38766;53.194;5.532;2022-07-01T07:41:57;7.80;;;2.30;;
51556;SDS011;38766;53.194;5.532;2022-07-01T07:44:22;5.22;;;2.00;;
51556;SDS011;38766;53.194;5.532;2022-07-01T07:46:48;7.30;;;2.42;;
51556;SDS011;38766;53.194;5.532;2022-07-01T07:49:14;4.43;;;2.10;;
51556;SDS011;38766;53.194;5.532;2022-07-01T07:51:40;8.35;;;2.30;;
51556;SDS011;38766;53.194;5.532;2022-07-01T07:54:05;7.05;;;2.15;;
51556;SDS011;38766;53.194;5.532;2022-07-01T07:56:31;7.55;;;2.50;;
51556;SDS011;38766;53.194;5.532;2022-07-01T07:58:57;6.50;;;2.30;;
51556;SDS011;38766;53.194;5.532;2022-07-01T08:01:22;10.85;;;2.60;;
51556;SDS011;38766;53.194;5.532;2022-07-01T08:03:48;6.82;;;2.42;;
51556;SDS011;38766;53.194;5.532;2022-07-01T08:06:14;7.70;;;2.20;;
51556;SDS011;38766;53.194;5.532;2022-07-01T08:08:40;7.63;;;1.98;;
51556;SDS011;38766;53.194;5.532;2022-07-01T08:11:06;5.57;;;2.05;;
51556;SDS011;38766;53.194;5.532;2022-07-01T08:13:31;4.95;;;2.30;;
51556;SDS011;38766;53.194;5.532;2022-07-01T08:15:57;3.80;;;1.45;;
51556;SDS011;38766;53.194;5.532;2022-07-01T08:18:23;3.90;;;1.40;;
51556;SDS011;38766;53.194;5.532;2022-07-01T08:20:48;3.53;;;1.20;;
51556;SDS011;38766;53.194;5.532;2022-07-01T08:23:17;3.50;;;1.20;;
51556;SDS011;38766;53.194;5.532;2022-07-01T08:25:47;5.90;;;1.55;;
51556;SDS011;38766;53.194;5.532;2022-07-01T08:28:13;3.30;;;1.58;;
51556;SDS011;38766;53.194;5.532;2022-07-01T08:30:38;5.82;;;2.33;;
51556;SDS011;38766;53.194;5.532;2022-07-01T08:33:04;2.90;;;1.23;;
51556;SDS011;38766;53.194;5.532;2022-07-01T08:35:30;2.17;;;1.13;;
51556;SDS011;38766;53.194;5.532;2022-07-01T08:37:56;3.55;;;1.35;;
51556;SDS011;38766;53.194;5.532;2022-07-01T08:40:25;4.90;;;1.15;;
51556;SDS011;38766;53.194;5.532;2022-07-01T08:42:58;3.58;;;1.23;;
51556;SDS011;38766;53.194;5.532;2022-07-01T08:45:26;2.75;;;1.20;;
51556;SDS011;38766;53.194;5.532;2022-07-01T08:47:54;3.67;;;1.17;;
51556;SDS011;38766;53.194;5.532;2022-07-01T08:50:31;2.72;;;1.35;;
51556;SDS011;38766;53.194;5.532;2022-07-01T08:53:04;5.38;;;1.08;;
51556;SDS011;38766;53.194;5.532;2022-07-01T08:55:49;6.10;;;1.38;;
51556;SDS011;38766;53.194;5.532;2022-07-01T08:58:34;5.53;;;1.27;;
51556;SDS011;38766;53.194;5.532;2022-07-01T09:01:35;4.55;;;1.20;;
51556;SDS011;38766;53.194;5.532;2022-07-01T09:03:54;4.55;;;1.20;;
51556;SDS011;38766;53.194;5.532;2022-07-01T09:06:28;2.83;;;1.17;;
51556;SDS011;38766;53.194;5.532;2022-07-01T09:08:54;5.40;;;1.40;;
51556;SDS011;38766;53.194;5.532;2022-07-01T09:11:35;3.17;;;1.27;;
51556;SDS011;38766;53.194;5.532;2022-07-01T09:14:04;3.13;;;1.10;;
51556;SDS011;38766;53.194;5.532;2022-07-01T09:16:44;2.75;;;1.30;;
51556;SDS011;38766;53.194;5.532;2022-07-01T09:19:11;4.05;;;1.15;;
51556;SDS011;38766;53.194;5.532;2022-07-01T09:21:39;5.55;;;1.35;;
51556;SDS011;38766;53.194;5.532;2022-07-01T09:26:52;2.40;;;1.35;;
51556;SDS011;38766;53.194;5.532;2022-07-01T09:29:17;2.53;;;1.10;;
51556;SDS011;38766;53.194;5.532;2022-07-01T09:31:49;4.35;;;1.33;;
51556;SDS011;38766;53.194;5.532;2022-07-01T09:34:15;2.72;;;1.48;;
51556;SDS011;38766;53.194;5.532;2022-07-01T09:36:40;3.83;;;1.52;;
51556;SDS011;38766;53.194;5.532;2022-07-01T09:39:16;3.05;;;1.23;;
51556;SDS011;38766;53.194;5.532;2022-07-01T09:41:41;5.07;;;1.63;;
51556;SDS011;38766;53.194;5.532;2022-07-01T09:44:07;3.17;;;1.65;;
51556;SDS011;38766;53.194;5.532;2022-07-01T09:46:34;4.97;;;1.88;;
51556;SDS011;38766;53.194;5.532;2022-07-01T09:48:59;5.78;;;1.80;;
51556;SDS011;38766;53.194;5.532;2022-07-01T09:51:26;4.85;;;1.90;;
51556;SDS011;38766;53.194;5.532;2022-07-01T09:53:52;4.32;;;1.80;;
51556;SDS011;38766;53.194;5.532;2022-07-01T09:56:18;3.13;;;1.50;;
51556;SDS011;38766;53.194;5.532;2022-07-01T09:58:44;3.38;;;1.42;;
51556;SDS011;38766;53.194;5.532;2022-07-01T10:01:10;3.90;;;1.63;;
51556;SDS011;38766;53.194;5.532;2022-07-01T10:03:38;5.40;;;1.73;;
51556;SDS011;38766;53.194;5.532;2022-07-01T10:08:55;6.85;;;2.10;;
51556;SDS011;38766;53.194;5.532;2022-07-01T10:14:08;5.07;;;1.80;;
51556;SDS011;38766;53.194;5.532;2022-07-01T10:16:36;4.28;;;1.75;;
51556;SDS011;38766;53.194;5.532;2022-07-01T10:21:49;3.95;;;1.33;;
51556;SDS011;38766;53.194;5.532;2022-07-01T10:24:21;4.15;;;1.60;;
51556;SDS011;38766;53.194;5.532;2022-07-01T10:26:48;4.65;;;1.80;;
51556;SDS011;38766;53.194;5.532;2022-07-01T10:29:26;2.40;;;1.52;;
51556;SDS011;38766;53.194;5.532;2022-07-01T10:32:03;3.90;;;1.95;;
51556;SDS011;38766;53.194;5.532;2022-07-01T10:34:34;5.03;;;1.30;;
51556;SDS011;38766;53.194;5.532;2022-07-01T10:37:02;4.18;;;1.40;;
51556;SDS011;38766;53.194;5.532;2022-07-01T10:39:39;2.03;;;1.10;;
51556;SDS011;38766;53.194;5.532;2022-07-01T10:42:21;3.63;;;1.30;;
51556;SDS011;38766;53.194;5.532;2022-07-01T10:45:01;3.60;;;1.45;;
51556;SDS011;38766;53.194;5.532;2022-07-01T10:47:35;2.65;;;1.92;;
51556;SDS011;38766;53.194;5.532;2022-07-01T10:50:06;2.72;;;1.30;;
51556;SDS011;38766;53.194;5.532;2022-07-01T10:52:36;5.05;;;1.45;;
51556;SDS011;38766;53.194;5.532;2022-07-01T10:55:04;4.68;;;1.55;;
51556;SDS011;38766;53.194;5.532;2022-07-01T10:57:33;5.05;;;2.47;;
51556;SDS011;38766;53.194;5.532;2022-07-01T11:02:31;1.63;;;1.10;;
51556;SDS011;38766;53.194;5.532;2022-07-01T11:05:00;3.53;;;1.30;;
51556;SDS011;38766;53.194;5.532;2022-07-01T11:07:29;3.47;;;1.20;;
51556;SDS011;38766;53.194;5.532;2022-07-01T11:09:57;2.92;;;1.00;;
51556;SDS011;38766;53.194;5.532;2022-07-01T11:12:23;1.80;;;1.02;;
51556;SDS011;38766;53.194;5.532;2022-07-01T11:14:50;6.13;;;1.30;;
51556;SDS011;38766;53.194;5.532;2022-07-01T11:17:16;2.30;;;1.20;;
51556;SDS011;38766;53.194;5.532;2022-07-01T11:19:49;2.95;;;1.02;;
51556;SDS011;38766;53.194;5.532;2022-07-01T11:22:31;4.63;;;1.50;;
51556;SDS011;38766;53.194;5.532;2022-07-01T11:24:59;5.55;;;1.67;;
51556;SDS011;38766;53.194;5.532;2022-07-01T11:27:29;4.07;;;1.08;;
51556;SDS011;38766;53.194;5.532;2022-07-01T11:29:56;2.13;;;0.90;;
51556;SDS011;38766;53.194;5.532;2022-07-01T11:32:31;3.13;;;1.15;;
51556;SDS011;38766;53.194;5.532;2022-07-01T11:35:03;5.18;;;1.10;;
51556;SDS011;38766;53.194;5.532;2022-07-01T11:37:49;3.65;;;1.10;;
51556;SDS011;38766;53.194;5.532;2022-07-01T11:40:34;4.63;;;1.33;;
51556;SDS011;38766;53.194;5.532;2022-07-01T11:43:00;6.28;;;1.20;;
51556;SDS011;38766;53.194;5.532;2022-07-01T11:45:25;2.85;;;1.10;;
51556;SDS011;38766;53.194;5.532;2022-07-01T11:47:52;2.92;;;1.20;;
51556;SDS011;38766;53.194;5.532;2022-07-01T11:50:18;3.65;;;1.42;;
51556;SDS011;38766;53.194;5.532;2022-07-01T11:52:45;3.17;;;1.30;;
51556;SDS011;38766;53.194;5.532;2022-07-01T11:55:10;5.45;;;1.60;;
51556;SDS011;38766;53.194;5.532;2022-07-01T11:57:36;5.70;;;1.85;;
51556;SDS011;38766;53.194;5.532;2022-07-01T12:00:11;3.60;;;1.40;;
51556;SDS011;38766;53.194;5.532;2022-07-01T12:02:38;3.10;;;1.25;;
51556;SDS011;38766;53.194;5.532;2022-07-01T12:05:04;6.70;;;1.58;;
51556;SDS011;38766;53.194;5.532;2022-07-01T12:07:30;4.53;;;1.40;;
51556;SDS011;38766;53.194;5.532;2022-07-01T12:09:59;2.78;;;1.50;;
51556;SDS011;38766;53.194;5.532;2022-07-01T12:12:26;5.53;;;1.40;;
51556;SDS011;38766;53.194;5.532;2022-07-01T12:14:56;3.67;;;1.38;;
51556;SDS011;38766;53.194;5.532;2022-07-01T12:17:23;4.05;;;1.90;;
51556;SDS011;38766;53.194;5.532;2022-07-01T12:19:51;4.07;;;1.42;;
51556;SDS011;38766;53.194;5.532;2022-07-01T12:22:19;5.22;;;1.85;;
51556;SDS011;38766;53.194;5.532;2022-07-01T12:24:48;7.25;;;1.55;;
51556;SDS011;38766;53.194;5.532;2022-07-01T12:27:15;3.53;;;1.10;;
51556;SDS011;38766;53.194;5.532;2022-07-01T12:32:17;6.10;;;1.88;;
51556;SDS011;38766;53.194;5.532;2022-07-01T12:34:45;1.65;;;1.13;;
51556;SDS011;38766;53.194;5.532;2022-07-01T12:39:54;5.35;;;1.50;;
51556;SDS011;38766;53.194;5.532;2022-07-01T12:44:53;5.80;;;1.70;;
51556;SDS011;38766;53.194;5.532;2022-07-01T12:47:30;3.95;;;1.40;;
51556;SDS011;38766;53.194;5.532;2022-07-01T12:52:41;6.20;;;1.63;;
51556;SDS011;38766;53.194;5.532;2022-07-01T12:55:20;3.42;;;1.50;;
51556;SDS011;38766;53.194;5.532;2022-07-01T12:57:47;3.90;;;1.30;;
51556;SDS011;38766;53.194;5.532;2022-07-01T13:00:14;5.85;;;1.60;;
51556;SDS011;38766;53.194;5.532;2022-07-01T13:02:41;5.43;;;1.80;;
51556;SDS011;38766;53.194;5.532;2022-07-01T13:05:07;6.30;;;1.70;;
51556;SDS011;38766;53.194;5.532;2022-07-01T13:07:33;6.15;;;1.80;;
51556;SDS011;38766;53.194;5.532;2022-07-01T13:09:58;8.07;;;1.67;;
51556;SDS011;38766;53.194;5.532;2022-07-01T13:12:24;3.00;;;1.23;;
51556;SDS011;38766;53.194;5.532;2022-07-01T13:14:50;4.57;;;1.40;;
51556;SDS011;38766;53.194;5.532;2022-07-01T13:17:15;8.98;;;1.42;;
51556;SDS011;38766;53.194;5.532;2022-07-01T13:19:41;3.08;;;1.30;;
51556;SDS011;38766;53.194;5.532;2022-07-01T13:22:06;3.30;;;1.35;;
51556;SDS011;38766;53.194;5.532;2022-07-01T13:24:33;3.90;;;1.42;;
51556;SDS011;38766;53.194;5.532;2022-07-01T13:26:59;6.30;;;1.70;;
51556;SDS011;38766;53.194;5.532;2022-07-01T13:29:25;4.72;;;1.50;;
51556;SDS011;38766;53.194;5.532;2022-07-01T13:31:50;5.18;;;1.10;;
51556;SDS011;38766;53.194;5.532;2022-07-01T13:34:16;4.57;;;1.45;;
51556;SDS011;38766;53.194;5.532;2022-07-01T13:36:42;4.40;;;1.50;;
51556;SDS011;38766;53.194;5.532;2022-07-01T13:39:07;2.17;;;1.30;;
51556;SDS011;38766;53.194;5.532;2022-07-01T13:41:34;4.50;;;1.35;;
51556;SDS011;38766;53.194;5.532;2022-07-01T13:44:00;8.27;;;1.50;;
51556;SDS011;38766;53.194;5.532;2022-07-01T13:46:25;5.10;;;1.55;;
51556;SDS011;38766;53.194;5.532;2022-07-01T13:48:51;5.40;;;1.30;;
51556;SDS011;38766;53.194;5.532;2022-07-01T13:51:16;10.13;;;1.58;;
51556;SDS011;38766;53.194;5.532;2022-07-01T13:53:42;4.95;;;1.48;;
51556;SDS011;38766;53.194;5.532;2022-07-01T13:56:08;6.10;;;1.50;;
51556;SDS011;38766;53.194;5.532;2022-07-01T13:58:33;4.68;;;1.40;;
51556;SDS011;38766;53.194;5.532;2022-07-01T14:00:59;5.50;;;1.40;;
51556;SDS011;38766;53.194;5.532;2022-07-01T14:03:25;5.22;;;1.45;;
51556;SDS011;38766;53.194;5.532;2022-07-01T14:05:50;3.50;;;1.50;;
51556;SDS011;38766;53.194;5.532;2022-07-01T14:08:16;5.50;;;1.50;;
51556;SDS011;38766;53.194;5.532;2022-07-01T14:10:42;5.15;;;1.20;;
51556;SDS011;38766;53.194;5.532;2022-07-01T14:13:09;6.32;;;1.40;;
51556;SDS011;38766;53.194;5.532;2022-07-01T14:15:35;3.40;;;1.50;;
51556;SDS011;38766;53.194;5.532;2022-07-01T14:18:01;5.43;;;1.40;;
51556;SDS011;38766;53.194;5.532;2022-07-01T14:20:28;4.75;;;1.70;;
51556;SDS011;38766;53.194;5.532;2022-07-01T14:22:54;3.28;;;1.67;;
51556;SDS011;38766;53.194;5.532;2022-07-01T14:25:20;5.28;;;1.63;;
51556;SDS011;38766;53.194;5.532;2022-07-01T14:27:47;4.30;;;1.52;;
51556;SDS011;38766;53.194;5.532;2022-07-01T14:30:14;7.97;;;1.52;;
51556;SDS011;38766;53.194;5.532;2022-07-01T14:32:40;3.95;;;1.27;;
51556;SDS011;38766;53.194;5.532;2022-07-01T14:35:06;5.13;;;1.20;;
51556;SDS011;38766;53.194;5.532;2022-07-01T14:37:33;2.70;;;1.10;;
51556;SDS011;38766;53.194;5.532;2022-07-01T14:39:59;5.20;;;1.10;;
51556;SDS011;38766;53.194;5.532;2022-07-01T14:42:25;4.50;;;1.23;;
51556;SDS011;38766;53.194;5.532;2022-07-01T14:44:52;5.03;;;1.48;;
51556;SDS011;38766;53.194;5.532;2022-07-01T14:47:18;5.38;;;1.50;;
51556;SDS011;38766;53.194;5.532;2022-07-01T14:49:44;3.55;;;1.10;;
51556;SDS011;38766;53.194;5.532;2022-07-01T14:52:10;3.28;;;1.05;;
51556;SDS011;38766;53.194;5.532;2022-07-01T14:54:37;5.80;;;1.45;;
51556;SDS011;38766;53.194;5.532;2022-07-01T14:57:04;5.07;;;1.63;;
51556;SDS011;38766;53.194;5.532;2022-07-01T14:59:30;2.63;;;1.67;;
51556;SDS011;38766;53.194;5.532;2022-07-01T15:01:56;4.55;;;1.65;;
51556;SDS011;38766;53.194;5.532;2022-07-01T15:04:25;5.32;;;1.40;;
51556;SDS011;38766;53.194;5.532;2022-07-01T15:06:51;3.63;;;1.40;;
51556;SDS011;38766;53.194;5.532;2022-07-01T15:09:17;2.58;;;1.00;;
51556;SDS011;38766;53.194;5.532;2022-07-01T15:11:47;6.28;;;1.52;;
51556;SDS011;38766;53.194;5.532;2022-07-01T15:14:13;6.28;;;1.40;;
51556;SDS011;38766;53.194;5.532;2022-07-01T15:16:38;4.05;;;1.50;;